Time;durP1;ratioP1;P1;durP2;ratioP2;P2;SDS_P1;SDS_P2;PMS_P1;PMS_P2;Temp;Humidity;BMP_temperature;BMP_pressure;BME280_temperature;BME280_humidity;BME280_pressure;Samples;Min_cycle;Max_cycle;Signal;HPM_P1;HPM_P2
2021/12/24 00:00:06;;;;;;;11.07;6.73;;;2.20;1.00;;;;;;5052836;28;20424;-76
2021/12/24 00:02:31;;;;;;;7.27;6.67;;;2.10;1.00;;;;;;5052207;28;20410;-71
2021/12/24 00:04:57;;;;;;;9.57;7.90;;;2.10;1.00;;;;;;5053650;28;20417;-69
2021/12/24 00:07:22;;;;;;;7.47;6.50;;;2.00;1.00;;;;;;5053542;28;20254;-74
2021/12/24 00:09:48;;;;;;;10.20;6.80;;;2.00;1.00;;;;;;5053662;28;20624;-76
2021/12/24 00:12:18;;;;;;;12.43;6.37;;;2.00;1.00;;;;;;5052842;28;20206;-76
2021/12/24 00:14:49;;;;;;;7.73;6.80;;;2.00;1.00;;;;;;5053477;28;20163;-75
2021/12/24 00:17:20;;;;;;;7.67;6.03;;;2.00;1.00;;;;;;5053364;28;20429;-75
2021/12/24 00:20:02;;;;;;;10.97;8.47;;;1.80;1.00;;;;;;5052797;28;20451;-68
2021/12/24 00:23:13;;;;;;;7.93;6.50;;;1.80;1.00;;;;;;5052554;28;20797;-69
2021/12/24 00:36:24;;;;;;;9.63;7.57;;;1.70;1.00;;;;;;5052536;28;20428;-69
2021/12/24 00:38:51;;;;;;;12.77;7.97;;;1.60;1.00;;;;;;5053269;28;20401;-68
2021/12/24 00:41:16;;;;;;;9.00;7.23;;;1.50;1.00;;;;;;5039769;28;20222;-76
2021/12/24 00:43:42;;;;;;;7.13;6.00;;;1.40;1.00;;;;;;5032400;28;20410;-69
2021/12/24 00:46:08;;;;;;;7.90;7.23;;;1.30;1.00;;;;;;5032771;28;20207;-68
2021/12/24 00:48:33;;;;;;;12.93;7.70;;;1.40;1.00;;;;;;5033092;28;20174;-75
2021/12/24 00:56:02;;;;;;;7.50;6.23;;;1.30;1.00;;;;;;5031731;28;20540;-75
2021/12/24 00:58:27;;;;;;;12.20;7.47;;;1.30;1.00;;;;;;5032994;28;20439;-75
2021/12/24 01:00:53;;;;;;;8.80;6.67;;;1.30;1.00;;;;;;5032859;28;20448;-75
2021/12/24 01:03:19;;;;;;;7.63;6.80;;;1.40;1.00;;;;;;5031877;28;20195;-69
2021/12/24 01:05:45;;;;;;;6.60;5.77;;;1.30;1.00;;;;;;5032606;28;20992;-69
2021/12/24 01:08:13;;;;;;;10.80;7.83;;;1.30;1.00;;;;;;5033133;28;20174;-75
2021/12/24 01:10:46;;;;;;;8.10;6.60;;;1.40;1.00;;;;;;5032660;28;20446;-68
2021/12/24 01:13:12;;;;;;;10.83;6.60;;;1.40;1.00;;;;;;5031649;28;20463;-75
2021/12/24 01:15:50;;;;;;;7.63;6.80;;;1.40;1.00;;;;;;5032233;28;21034;-72
2021/12/24 01:18:35;;;;;;;6.50;5.87;;;1.40;1.00;;;;;;5033006;28;20395;-75
2021/12/24 01:21:19;;;;;;;8.87;7.20;;;1.40;1.00;;;;;;5032648;28;20822;-75
2021/12/24 01:23:51;;;;;;;10.00;6.07;;;1.40;1.00;;;;;;5031831;28;20837;-75
2021/12/24 01:26:23;;;;;;;9.37;6.57;;;1.50;1.00;;;;;;5032462;28;20458;-75
2021/12/24 01:29:18;;;;;;;5.70;5.30;;;1.60;1.00;;;;;;5032830;28;20401;-75
2021/12/24 01:45:12;;;;;;;5.73;5.20;;;1.90;1.00;;;;;;5032921;28;20464;-70
2021/12/24 01:47:37;;;;;;;6.47;5.87;;;2.00;1.00;;;;;;5030935;28;20511;-68
2021/12/24 01:50:03;;;;;;;7.90;7.13;;;2.00;1.00;;;;;;5030372;28;20481;-68
2021/12/24 01:52:29;;;;;;;8.87;6.00;;;2.00;1.00;;;;;;5031203;28;20172;-75
2021/12/24 01:54:54;;;;;;;5.80;5.30;;;2.00;1.00;;;;;;5032571;28;20394;-75
2021/12/24 01:57:20;;;;;;;6.77;5.90;;;2.10;1.00;;;;;;5032134;28;20258;-74
2021/12/24 01:59:46;;;;;;;6.40;5.20;;;2.10;1.00;;;;;;5032358;28;20179;-71
2021/12/24 02:02:11;;;;;;;8.57;6.00;;;2.10;1.00;;;;;;5030860;28;20640;-74
2021/12/24 02:04:37;;;;;;;5.37;4.90;;;2.10;1.00;;;;;;5032454;28;20167;-69
2021/12/24 02:07:04;;;;;;;7.03;5.57;;;2.10;1.00;;;;;;5031155;28;20192;-74
2021/12/24 02:09:30;;;;;;;8.40;5.93;;;2.00;1.00;;;;;;5034873;28;20168;-74
2021/12/24 02:11:57;;;;;;;6.10;5.50;;;2.00;1.00;;;;;;5035195;28;20410;-74
2021/12/24 02:14:25;;;;;;;7.90;6.50;;;2.00;1.00;;;;;;5035333;28;20430;-73
2021/12/24 02:30:12;;;;;;;6.33;5.73;;;2.10;1.00;;;;;;5035613;28;20409;-67
2021/12/24 02:32:42;;;;;;;6.43;5.53;;;2.10;1.00;;;;;;5034131;28;20414;-74
2021/12/24 02:35:09;;;;;;;5.43;4.90;;;2.10;1.00;;;;;;5035184;28;20545;-68
2021/12/24 02:37:35;;;;;;;6.50;5.60;;;2.00;1.00;;;;;;5035482;28;20433;-74
2021/12/24 02:40:02;;;;;;;5.83;5.17;;;2.00;1.00;;;;;;5033728;28;20422;-74
2021/12/24 02:42:27;;;;;;;6.37;5.77;;;2.00;1.00;;;;;;5034501;28;20671;-68
2021/12/24 02:44:53;;;;;;;8.17;7.37;;;2.00;1.00;;;;;;5034733;28;20493;-74
2021/12/24 02:55:00;;;;;;;6.97;5.57;;;1.90;1.00;;;;;;5034864;28;20837;-67
2021/12/24 02:57:28;;;;;;;6.13;5.60;;;1.90;1.00;;;;;;5024006;28;20517;-73
2021/12/24 03:00:06;;;;;;;8.70;5.77;;;1.80;1.00;;;;;;5035118;28;20497;-74
2021/12/24 03:02:33;;;;;;;6.23;5.20;;;1.80;1.00;;;;;;5033823;28;20423;-71
2021/12/24 03:05:00;;;;;;;4.63;4.23;;;1.70;1.00;;;;;;5034447;28;20430;-73
2021/12/24 03:07:25;;;;;;;6.73;5.90;;;1.70;1.00;;;;;;5034441;28;20474;-72
2021/12/24 03:09:54;;;;;;;6.03;5.43;;;1.60;1.00;;;;;;5034893;28;20740;-74
2021/12/24 03:12:20;;;;;;;5.97;5.37;;;1.70;1.00;;;;;;5033534;28;20192;-70
2021/12/24 03:14:46;;;;;;;6.17;5.57;;;1.70;1.00;;;;;;5034813;28;20399;-74
2021/12/24 03:17:16;;;;;;;5.63;4.83;;;1.70;1.00;;;;;;5034556;28;20438;-68
2021/12/24 03:19:42;;;;;;;7.27;5.77;;;1.70;1.00;;;;;;5034346;28;20668;-73
2021/12/24 03:24:53;;;;;;;7.40;5.20;;;1.60;1.00;;;;;;5014773;28;20187;-68
2021/12/24 03:27:18;;;;;;;5.60;4.83;;;1.70;1.00;;;;;;5014367;28;20458;-68
2021/12/24 03:29:44;;;;;;;6.57;5.43;;;1.80;1.00;;;;;;5033475;28;20253;-69
2021/12/24 03:32:09;;;;;;;6.57;5.90;;;1.90;1.00;;;;;;5033516;28;20625;-69
2021/12/24 03:34:35;;;;;;;8.13;5.70;;;1.90;1.00;;;;;;5034025;28;20175;-71
2021/12/24 03:37:03;;;;;;;9.73;5.30;;;1.90;1.00;;;;;;5034308;28;20199;-74
2021/12/24 03:39:29;;;;;;;5.50;5.00;;;2.00;1.00;;;;;;5034038;28;20418;-69
2021/12/24 03:41:54;;;;;;;15.43;6.97;;;2.00;1.00;;;;;;5034058;28;20390;-69
2021/12/24 03:44:29;;;;;;;6.43;5.83;;;2.00;1.00;;;;;;5032646;28;20206;-69
2021/12/24 03:47:02;;;;;;;6.63;5.73;;;2.10;1.00;;;;;;5034064;28;20679;-73
2021/12/24 03:49:39;;;;;;;11.33;6.10;;;2.10;1.00;;;;;;5033933;28;20422;-73
2021/12/24 03:52:23;;;;;;;7.57;5.80;;;2.10;1.00;;;;;;5033141;28;20461;-73
2021/12/24 03:55:00;;;;;;;7.33;5.60;;;2.20;1.00;;;;;;5014376;28;20421;-74
2021/12/24 03:57:38;;;;;;;6.60;5.33;;;2.20;1.00;;;;;;5014291;28;20844;-70
2021/12/24 04:00:12;;;;;;;6.60;6.00;;;2.20;1.00;;;;;;5033763;28;20394;-70
2021/12/24 04:02:38;;;;;;;6.60;5.90;;;2.10;1.00;;;;;;5032637;28;20444;-75
2021/12/24 04:05:04;;;;;;;5.77;5.27;;;2.10;1.00;;;;;;5033241;28;20390;-72
2021/12/24 04:07:29;;;;;;;6.93;6.23;;;2.10;1.00;;;;;;5033438;28;20454;-69
2021/12/24 04:12:26;;;;;;;6.77;6.17;;;2.10;1.00;;;;;;5032540;28;20171;-69
2021/12/24 04:14:53;;;;;;;5.40;4.90;;;2.10;1.00;;;;;;5033570;28;20489;-74
2021/12/24 04:17:20;;;;;;;6.10;5.47;;;2.10;1.00;;;;;;5031990;28;20668;-71
2021/12/24 04:25:14;;;;;;;8.07;5.93;;;2.10;1.00;;;;;;5033509;28;20942;-74
2021/12/24 04:27:39;;;;;;;7.93;7.17;;;2.10;1.00;;;;;;5031852;28;20489;-69
2021/12/24 04:30:11;;;;;;;11.80;6.03;;;2.10;1.00;;;;;;5033422;28;20215;-69
2021/12/24 04:38:29;;;;;;;13.23;6.83;;;2.20;1.00;;;;;;5033252;28;20406;-69
2021/12/24 04:52:11;;;;;;;15.37;7.43;;;2.30;1.00;;;;;;5032758;28;20420;-76
2021/12/24 05:03:02;;;;;;;8.73;7.10;;;2.30;1.00;;;;;;5032168;28;20429;-74
2021/12/24 05:05:49;;;;;;;12.60;7.30;;;2.30;1.00;;;;;;5032619;28;20930;-68
2021/12/24 05:08:20;;;;;;;9.97;8.03;;;2.20;1.00;;;;;;5032838;28;20450;-70
2021/12/24 05:10:46;;;;;;;12.17;7.83;;;2.20;1.00;;;;;;5032548;28;20450;-69
2021/12/24 05:13:14;;;;;;;9.97;8.93;;;2.20;1.00;;;;;;5031820;28;20532;-68
2021/12/24 05:15:41;;;;;;;10.13;8.33;;;2.20;1.00;;;;;;5014763;28;20990;-68
2021/12/24 05:23:20;;;;;;;12.60;8.60;;;2.30;1.00;;;;;;5031777;28;20413;-74
2021/12/24 05:25:47;;;;;;;14.73;8.60;;;2.30;1.00;;;;;;5032345;28;21009;-75
2021/12/24 05:28:13;;;;;;;12.50;9.03;;;2.30;1.00;;;;;;5032796;28;20664;-69
2021/12/24 05:30:41;;;;;;;14.63;9.30;;;2.20;1.00;;;;;;5032274;28;20429;-74
2021/12/24 05:33:12;;;;;;;10.60;9.03;;;2.20;1.00;;;;;;5031268;28;20402;-69
2021/12/24 05:35:37;;;;;;;18.93;10.97;;;2.10;1.00;;;;;;5032314;28;20440;-75
2021/12/24 05:38:03;;;;;;;13.83;9.30;;;2.20;1.00;;;;;;5032381;28;20422;-69
2021/12/24 05:40:29;;;;;;;14.47;8.37;;;2.20;1.00;;;;;;5032715;28;20186;-75
2021/12/24 05:42:54;;;;;;;10.43;8.60;;;2.10;1.00;;;;;;5033284;28;20222;-75
2021/12/24 05:45:20;;;;;;;14.80;9.33;;;2.20;1.00;;;;;;5036301;28;20175;-69
2021/12/24 05:47:46;;;;;;;11.67;8.30;;;2.20;1.00;;;;;;5035721;28;20694;-70
2021/12/24 05:50:11;;;;;;;16.70;10.57;;;2.20;1.00;;;;;;5036205;28;20179;-74
2021/12/24 05:52:37;;;;;;;20.53;9.37;;;2.10;1.00;;;;;;5034334;28;20180;-75
2021/12/24 05:55:04;;;;;;;15.63;8.10;;;2.10;1.00;;;;;;5034810;28;20175;-70
2021/12/24 05:57:30;;;;;;;20.03;9.30;;;2.10;1.00;;;;;;5035096;28;20203;-71
2021/12/24 05:59:56;;;;;;;13.30;9.40;;;2.00;1.00;;;;;;5034553;28;20571;-74
2021/12/24 06:02:21;;;;;;;21.87;11.23;;;1.90;1.00;;;;;;5035402;28;20414;-72
2021/12/24 06:04:47;;;;;;;24.17;10.57;;;1.90;1.00;;;;;;5035787;28;20702;-74
2021/12/24 06:07:13;;;;;;;16.63;9.47;;;1.80;1.00;;;;;;5034119;28;20217;-73
2021/12/24 06:09:38;;;;;;;18.37;10.43;;;1.80;1.00;;;;;;5020758;28;20530;-69
2021/12/24 06:12:04;;;;;;;19.00;11.00;;;1.80;1.00;;;;;;5015225;28;20644;-69
2021/12/24 06:14:30;;;;;;;18.17;10.97;;;1.90;1.00;;;;;;5032684;28;20167;-74
2021/12/24 06:17:02;;;;;;;20.47;10.00;;;1.90;1.00;;;;;;5035948;28;20919;-71
2021/12/24 06:19:28;;;;;;;24.10;10.17;;;1.90;1.00;;;;;;5035601;28;20855;-70
2021/12/24 06:21:55;;;;;;;13.73;8.50;;;1.80;1.00;;;;;;5035299;28;20548;-70
2021/12/24 06:24:20;;;;;;;16.63;9.83;;;1.80;1.00;;;;;;5034857;28;20453;-74
2021/12/24 06:26:47;;;;;;;17.40;10.10;;;1.70;1.00;;;;;;5034944;28;20501;-71
2021/12/24 06:29:13;;;;;;;16.97;10.00;;;1.60;1.00;;;;;;5033774;28;20179;-71
2021/12/24 06:31:39;;;;;;;18.87;11.33;;;1.60;1.00;;;;;;5035476;28;20433;-74
2021/12/24 06:34:06;;;;;;;22.87;11.33;;;1.60;1.00;;;;;;5018148;28;20423;-70
2021/12/24 06:36:35;;;;;;;26.03;12.40;;;1.60;1.00;;;;;;5015748;28;20196;-70
2021/12/24 06:39:04;;;;;;;14.73;11.20;;;1.60;1.00;;;;;;5032572;28;20497;-73
2021/12/24 06:41:33;;;;;;;23.10;11.17;;;1.70;1.00;;;;;;5035437;28;21145;-69
2021/12/24 06:44:00;;;;;;;26.63;12.30;;;1.80;1.00;;;;;;5034144;28;20450;-70
2021/12/24 06:46:26;;;;;;;25.73;14.07;;;1.80;1.00;;;;;;5033771;28;20474;-72
2021/12/24 06:48:53;;;;;;;18.47;12.50;;;1.90;1.00;;;;;;5034312;28;20484;-70
2021/12/24 06:51:20;;;;;;;16.90;10.73;;;1.90;1.00;;;;;;5035077;28;20429;-69
2021/12/24 06:53:45;;;;;;;19.40;9.97;;;1.90;1.00;;;;;;5032909;28;20402;-75
2021/12/24 06:56:11;;;;;;;35.53;11.90;;;1.90;1.00;;;;;;5033598;28;20458;-74
2021/12/24 06:58:37;;;;;;;20.40;11.20;;;1.90;1.00;;;;;;5033986;28;20210;-73
2021/12/24 07:01:03;;;;;;;22.27;12.80;;;1.90;1.00;;;;;;5033901;28;20418;-68
2021/12/24 07:03:29;;;;;;;17.13;11.23;;;1.90;1.00;;;;;;5034033;28;20472;-73
2021/12/24 07:05:55;;;;;;;23.27;11.83;;;1.80;1.00;;;;;;5033897;28;20430;-70
2021/12/24 07:08:21;;;;;;;14.20;10.13;;;1.70;1.00;;;;;;5034892;28;20252;-73
2021/12/24 07:10:46;;;;;;;23.23;12.97;;;1.70;1.00;;;;;;5033342;28;20179;-67
2021/12/24 07:13:12;;;;;;;20.60;13.37;;;1.60;1.00;;;;;;5033960;28;20403;-73
2021/12/24 07:15:38;;;;;;;23.77;11.80;;;1.60;1.00;;;;;;5034456;28;20564;-69
2021/12/24 07:18:03;;;;;;;21.13;12.60;;;1.60;1.00;;;;;;5034612;28;20529;-69
2021/12/24 07:20:29;;;;;;;19.03;11.00;;;1.60;1.00;;;;;;5030956;28;20230;-70
2021/12/24 07:22:55;;;;;;;21.50;11.90;;;1.70;1.00;;;;;;5013872;28;20230;-73
2021/12/24 07:25:20;;;;;;;19.00;11.10;;;1.70;1.00;;;;;;5019327;28;20253;-68
2021/12/24 07:27:46;;;;;;;20.37;10.60;;;1.90;1.00;;;;;;5033377;28;20211;-74
2021/12/24 07:30:12;;;;;;;18.87;9.60;;;1.90;1.00;;;;;;5034117;28;20175;-72
2021/12/24 07:32:41;;;;;;;23.17;12.20;;;1.90;1.00;;;;;;5032077;28;20179;-68
2021/12/24 07:35:08;;;;;;;19.70;10.00;;;1.90;1.00;;;;;;5033611;28;20887;-75
2021/12/24 07:37:34;;;;;;;34.67;11.90;;;1.90;1.00;;;;;;5034201;28;20798;-74
2021/12/24 07:40:02;;;;;;;16.33;11.57;;;1.90;1.00;;;;;;5033895;28;20418;-69
2021/12/24 07:42:28;;;;;;;24.20;13.00;;;1.90;1.00;;;;;;5032751;28;20406;-69
2021/12/24 07:44:54;;;;;;;22.50;13.63;;;1.90;1.00;;;;;;5033949;28;20426;-68
2021/12/24 07:47:27;;;;;;;25.03;12.30;;;1.90;1.00;;;;;;5033880;28;20454;-68
2021/12/24 07:50:02;;;;;;;20.67;11.90;;;1.90;1.00;;;;;;5033685;28;20171;-74
2021/12/24 07:52:28;;;;;;;27.13;13.90;;;1.90;1.00;;;;;;5031839;28;20918;-73
2021/12/24 07:54:55;;;;;;;24.03;14.30;;;1.90;1.00;;;;;;5033774;28;20429;-73
2021/12/24 07:57:22;;;;;;;22.70;10.93;;;2.00;1.00;;;;;;5033615;28;20426;-73
2021/12/24 07:59:48;;;;;;;27.40;12.40;;;2.00;1.00;;;;;;5033261;28;20438;-68
2021/12/24 08:02:22;;;;;;;20.93;13.40;;;2.00;1.00;;;;;;5032968;28;20425;-73
2021/12/24 08:04:48;;;;;;;22.73;11.20;;;1.90;1.00;;;;;;5033543;28;20429;-68
2021/12/24 08:07:15;;;;;;;18.60;12.90;;;1.90;1.00;;;;;;5032841;28;20808;-69
2021/12/24 08:09:41;;;;;;;25.17;12.50;;;1.80;1.00;;;;;;5033618;28;20430;-73
2021/12/24 08:12:09;;;;;;;27.03;13.83;;;1.80;1.00;;;;;;5032781;28;20402;-73
2021/12/24 08:14:35;;;;;;;27.17;12.30;;;1.90;1.00;;;;;;5032905;28;20495;-74
2021/12/24 08:17:01;;;;;;;18.93;11.70;;;1.90;1.00;;;;;;5033451;28;20986;-68
2021/12/24 08:19:26;;;;;;;18.10;8.67;;;2.00;1.00;;;;;;5033129;28;20434;-73
2021/12/24 08:21:52;;;;;;;20.40;12.37;;;2.00;1.00;;;;;;5032851;28;20199;-69
2021/12/24 08:24:18;;;;;;;21.50;13.00;;;2.00;1.00;;;;;;5031163;28;20210;-67
2021/12/24 08:26:44;;;;;;;21.13;11.47;;;2.00;1.00;;;;;;5033049;28;20195;-68
2021/12/24 08:29:09;;;;;;;24.77;11.17;;;2.10;1.00;;;;;;5023948;28;20172;-68
2021/12/24 08:31:36;;;;;;;21.43;12.63;;;2.10;1.00;;;;;;5014769;28;20409;-68
2021/12/24 08:34:04;;;;;;;23.70;12.17;;;2.10;1.00;;;;;;5031743;28;20233;-73
2021/12/24 08:36:30;;;;;;;22.53;12.20;;;2.10;1.00;;;;;;5033090;28;20465;-73
2021/12/24 08:38:56;;;;;;;27.80;13.47;;;2.10;1.00;;;;;;5032245;28;20458;-67
2021/12/24 08:41:22;;;;;;;20.93;13.10;;;2.10;1.00;;;;;;5033114;28;20172;-73
2021/12/24 08:43:48;;;;;;;21.50;11.90;;;2.20;1.00;;;;;;5031831;28;20266;-68
2021/12/24 08:46:14;;;;;;;26.00;12.07;;;2.20;1.00;;;;;;5031161;28;21045;-70
2021/12/24 08:48:39;;;;;;;18.23;12.77;;;2.30;1.00;;;;;;5039269;28;20171;-73
2021/12/24 08:51:05;;;;;;;23.73;11.87;;;2.20;1.00;;;;;;5034112;28;20267;-69
2021/12/24 08:53:31;;;;;;;20.30;10.70;;;2.20;1.00;;;;;;5031345;28;20242;-71
2021/12/24 08:55:57;;;;;;;19.67;11.13;;;2.30;1.00;;;;;;5031848;28;20196;-73
2021/12/24 08:58:22;;;;;;;21.77;12.07;;;2.30;1.00;;;;;;5032838;28;20552;-73
2021/12/24 09:00:48;;;;;;;18.17;10.17;;;2.40;1.00;;;;;;5032448;28;20198;-73
2021/12/24 09:03:14;;;;;;;18.40;10.47;;;2.40;1.00;;;;;;5031667;28;20549;-68
2021/12/24 09:05:40;;;;;;;18.13;11.83;;;2.40;1.00;;;;;;5032669;28;20632;-68
2021/12/24 09:08:08;;;;;;;20.83;10.60;;;2.40;1.00;;;;;;5032769;28;20588;-73
2021/12/24 09:10:35;;;;;;;21.50;10.93;;;2.50;1.00;;;;;;5032960;28;20246;-73
2021/12/24 09:13:01;;;;;;;14.07;8.80;;;2.40;1.00;;;;;;5031459;28;20406;-73
2021/12/24 09:15:30;;;;;;;16.50;10.37;;;2.40;1.00;;;;;;5032790;28;20406;-69
2021/12/24 09:18:00;;;;;;;20.43;9.77;;;2.40;1.00;;;;;;5033472;28;20417;-72
2021/12/24 09:20:31;;;;;;;16.63;10.70;;;2.50;1.00;;;;;;5037083;28;20425;-73
2021/12/24 09:23:00;;;;;;;33.10;10.60;;;2.40;1.00;;;;;;5035935;28;20403;-68
2021/12/24 09:25:27;;;;;;;26.60;11.93;;;2.40;1.00;;;;;;5036720;28;20882;-73
2021/12/24 09:27:53;;;;;;;18.20;9.77;;;2.30;1.00;;;;;;5036790;28;20973;-73
2021/12/24 09:30:19;;;;;;;15.77;11.23;;;2.40;1.00;;;;;;5035496;28;20508;-73
2021/12/24 09:32:45;;;;;;;16.73;9.90;;;2.40;1.00;;;;;;5033903;28;20930;-73
2021/12/24 09:35:12;;;;;;;18.10;8.60;;;2.50;1.00;;;;;;5036669;28;20168;-69
2021/12/24 09:37:40;;;;;;;14.97;7.50;;;2.50;1.00;;;;;;5036603;28;20406;-73
2021/12/24 09:40:08;;;;;;;13.63;8.30;;;2.40;1.00;;;;;;5036558;28;20410;-73
2021/12/24 09:42:34;;;;;;;19.03;8.27;;;2.50;1.00;;;;;;5035732;28;20406;-71
2021/12/24 09:45:01;;;;;;;18.50;10.27;;;2.40;1.00;;;;;;5036532;28;20403;-73
2021/12/24 09:47:27;;;;;;;22.60;9.90;;;2.40;1.00;;;;;;5036165;28;20489;-73
2021/12/24 09:49:53;;;;;;;17.40;9.17;;;2.40;1.00;;;;;;5036084;28;20441;-73
2021/12/24 09:52:20;;;;;;;14.43;7.83;;;2.40;1.00;;;;;;5035117;28;20282;-67
2021/12/24 09:54:47;;;;;;;13.73;8.27;;;2.30;1.00;;;;;;5036325;28;20406;-68
2021/12/24 09:57:14;;;;;;;18.80;9.37;;;2.30;1.00;;;;;;5036162;28;20782;-73
2021/12/24 09:59:40;;;;;;;18.40;8.27;;;2.30;1.00;;;;;;5036187;28;20406;-68
2021/12/24 10:02:14;;;;;;;11.53;7.57;;;2.30;1.00;;;;;;5035288;28;20433;-70
2021/12/24 10:04:41;;;;;;;17.13;10.63;;;2.40;1.00;;;;;;5036026;28;20413;-67
2021/12/24 10:07:10;;;;;;;12.93;7.93;;;2.40;1.00;;;;;;5035985;28;20466;-67
2021/12/24 10:09:43;;;;;;;15.07;9.57;;;2.40;1.00;;;;;;5035292;28;20907;-67
2021/12/24 10:12:13;;;;;;;14.53;7.37;;;2.30;1.00;;;;;;5035110;28;20410;-73
2021/12/24 10:14:53;;;;;;;17.63;9.83;;;2.20;1.00;;;;;;5035983;28;20422;-73
2021/12/24 10:17:22;;;;;;;13.73;8.80;;;2.20;1.00;;;;;;5035644;28;20464;-72
2021/12/24 10:19:55;;;;;;;18.23;9.70;;;2.20;1.00;;;;;;5035860;28;20903;-68
2021/12/24 10:22:21;;;;;;;21.60;10.00;;;2.10;1.00;;;;;;5035056;28;20426;-68
2021/12/24 10:25:00;;;;;;;16.07;9.13;;;2.10;1.00;;;;;;5035670;28;20942;-67
2021/12/24 10:27:32;;;;;;;13.57;8.43;;;2.10;1.00;;;;;;5035527;28;20819;-68
2021/12/24 10:29:59;;;;;;;17.17;10.10;;;2.00;1.00;;;;;;5033892;28;20401;-72
2021/12/24 10:32:26;;;;;;;13.60;7.90;;;2.00;1.00;;;;;;5034913;28;20425;-73
2021/12/24 10:34:52;;;;;;;12.77;7.50;;;2.00;1.00;;;;;;5035574;28;20399;-66
2021/12/24 10:37:23;;;;;;;19.87;10.47;;;2.00;1.00;;;;;;5034183;28;20479;-72
2021/12/24 10:39:55;;;;;;;19.67;8.40;;;2.00;1.00;;;;;;5035474;28;20406;-67
2021/12/24 10:42:31;;;;;;;19.67;10.90;;;2.10;1.00;;;;;;5033601;28;20453;-67
2021/12/24 10:44:59;;;;;;;16.60;9.60;;;2.10;1.00;;;;;;5034339;28;20433;-69
2021/12/24 10:47:33;;;;;;;19.47;10.20;;;2.10;1.00;;;;;;5034236;28;20461;-72
2021/12/24 10:50:29;;;;;;;18.40;10.50;;;2.20;1.00;;;;;;5034159;28;20532;-69
2021/12/24 10:55:36;;;;;;;15.20;9.03;;;2.00;1.00;;;;;;5034888;28;20398;-73
2021/12/24 10:58:04;;;;;;;19.73;9.53;;;1.90;1.00;;;;;;5035058;28;20476;-73
2021/12/24 11:00:42;;;;;;;21.73;10.50;;;1.90;1.00;;;;;;5034585;28;20433;-73
2021/12/24 11:03:15;;;;;;;22.77;10.50;;;1.90;1.00;;;;;;5032912;28;20488;-71
2021/12/24 11:05:46;;;;;;;18.77;9.43;;;1.90;1.00;;;;;;5034209;28;20445;-73
2021/12/24 11:08:25;;;;;;;20.13;10.10;;;1.80;1.00;;;;;;5034858;28;20511;-66
2021/12/24 11:10:59;;;;;;;19.80;11.03;;;1.70;1.00;;;;;;5028382;28;20517;-73
2021/12/24 11:13:40;;;;;;;18.27;9.73;;;1.70;1.00;;;;;;5032586;28;20414;-67
2021/12/24 11:16:08;;;;;;;22.20;11.70;;;1.80;1.00;;;;;;5034357;28;20438;-67
2021/12/24 11:18:38;;;;;;;14.57;8.70;;;1.80;1.00;;;;;;5034513;28;20953;-72
2021/12/24 11:21:08;;;;;;;19.10;9.57;;;1.80;1.00;;;;;;5034542;28;20453;-67
2021/12/24 11:23:37;;;;;;;18.23;7.57;;;1.80;1.00;;;;;;5032852;28;20917;-68
2021/12/24 11:26:08;;;;;;;16.53;7.83;;;1.80;1.00;;;;;;5034095;28;20446;-73
2021/12/24 11:28:36;;;;;;;16.27;9.53;;;1.80;1.00;;;;;;5033013;28;20414;-68
2021/12/24 11:31:04;;;;;;;9.47;7.60;;;1.80;1.00;;;;;;5034507;28;20435;-67
2021/12/24 11:33:33;;;;;;;9.80;6.93;;;1.90;1.00;;;;;;5033598;28;20418;-67
2021/12/24 11:36:01;;;;;;;9.87;6.77;;;2.00;1.00;;;;;;5033904;28;20799;-68
2021/12/24 11:38:32;;;;;;;16.00;7.70;;;1.90;1.00;;;;;;5033769;28;20437;-68
2021/12/24 11:41:00;;;;;;;14.77;8.67;;;2.00;1.00;;;;;;5033895;28;20421;-72
2021/12/24 11:43:30;;;;;;;11.20;6.73;;;2.10;1.00;;;;;;5032881;28;20460;-71
2021/12/24 11:45:58;;;;;;;11.03;6.90;;;2.10;1.00;;;;;;5028813;28;20436;-69
2021/12/24 11:48:26;;;;;;;16.60;7.53;;;2.10;1.00;;;;;;5033813;28;20456;-70
2021/12/24 11:50:53;;;;;;;15.57;7.23;;;2.10;1.00;;;;;;5033281;28;20433;-69
2021/12/24 11:53:19;;;;;;;17.00;8.83;;;2.10;1.00;;;;;;5032822;28;20418;-67
2021/12/24 11:55:49;;;;;;;14.03;6.60;;;2.10;1.00;;;;;;5033749;28;21022;-68
2021/12/24 11:58:21;;;;;;;14.80;9.47;;;2.00;1.00;;;;;;5033945;28;20409;-67
2021/12/24 12:00:50;;;;;;;7.63;6.60;;;2.00;1.00;;;;;;5032743;28;20426;-67
2021/12/24 12:03:39;;;;;;;11.47;5.93;;;2.00;1.00;;;;;;5032790;28;20835;-67
2021/12/24 12:06:25;;;;;;;10.23;6.53;;;1.90;1.00;;;;;;5031932;28;20796;-71
2021/12/24 12:08:58;;;;;;;5.63;4.65;;;1.80;1.00;;;;;;5032953;28;20429;-67
2021/12/24 12:11:26;;;;;;;5.47;4.40;;;1.70;1.00;;;;;;5033102;28;20687;-67
2021/12/24 12:14:01;;;;;;;7.30;4.20;;;1.70;1.00;;;;;;5032136;28;20421;-68
2021/12/24 12:16:29;;;;;;;6.78;4.80;;;1.70;1.00;;;;;;5033555;28;20202;-73
2021/12/24 12:19:22;;;;;;;13.40;3.38;;;1.60;1.00;;;;;;5032542;28;20170;-71
2021/12/24 12:25:13;;;;;;;3.10;2.90;;;1.50;1.00;;;;;;5033588;28;20179;-67
2021/12/24 12:27:44;;;;;;;3.33;2.75;;;1.50;1.00;;;;;;5032830;28;20230;-72
2021/12/24 12:30:42;;;;;;;3.10;2.90;;;1.50;1.00;;;;;;5032755;28;20564;-70
2021/12/24 12:33:13;;;;;;;2.15;2.05;;;1.50;1.00;;;;;;5048942;28;20179;-67
2021/12/24 12:35:55;;;;;;;2.30;2.13;;;1.40;1.00;;;;;;5049918;28;20192;-71
2021/12/24 12:38:26;;;;;;;2.72;2.53;;;1.40;1.00;;;;;;5033087;28;20539;-71
2021/12/24 12:40:53;;;;;;;5.32;2.55;;;1.40;1.00;;;;;;5032974;28;20206;-71
2021/12/24 12:43:21;;;;;;;2.13;1.83;;;1.30;1.00;;;;;;5032387;28;20572;-67
2021/12/24 12:45:48;;;;;;;2.88;2.70;;;1.40;1.00;;;;;;5032933;28;20202;-71
2021/12/24 12:48:24;;;;;;;2.15;1.95;;;1.30;1.00;;;;;;5033094;28;20245;-69
2021/12/24 12:50:52;;;;;;;3.58;2.65;;;1.30;1.00;;;;;;5032704;28;20295;-68
2021/12/24 12:53:34;;;;;;;6.80;2.33;;;1.30;1.00;;;;;;5031675;28;20171;-67
2021/12/24 12:56:20;;;;;;;2.35;2.00;;;1.30;1.00;;;;;;5032131;28;20195;-68
2021/12/24 12:58:57;;;;;;;3.35;2.20;;;1.20;1.00;;;;;;5031729;28;20589;-68
2021/12/24 13:01:23;;;;;;;2.75;2.55;;;1.20;1.00;;;;;;5032810;28;20225;-72
2021/12/24 13:03:55;;;;;;;2.30;2.13;;;1.20;1.00;;;;;;5032151;28;20209;-68
2021/12/24 13:06:41;;;;;;;1.85;1.75;;;1.20;1.00;;;;;;5032706;28;20199;-68
2021/12/24 13:09:13;;;;;;;3.83;2.30;;;1.10;1.00;;;;;;5033056;28;20217;-72
2021/12/24 13:11:44;;;;;;;1.83;1.73;;;1.10;1.00;;;;;;5031713;28;20182;-72
2021/12/24 13:14:11;;;;;;;2.45;2.28;;;1.10;1.00;;;;;;5031654;28;20246;-68
2021/12/24 13:16:48;;;;;;;4.63;2.40;;;1.00;1.00;;;;;;5032135;28;20245;-72
2021/12/24 13:24:49;;;;;;;1.70;1.60;;;1.00;1.00;;;;;;5032717;28;20175;-68
2021/12/24 13:27:15;;;;;;;2.35;2.25;;;1.00;1.00;;;;;;5032233;28;20199;-73
2021/12/24 13:29:41;;;;;;;1.85;1.75;;;0.90;1.00;;;;;;5032808;28;20167;-68
2021/12/24 13:32:07;;;;;;;4.50;2.10;;;0.90;1.00;;;;;;5030799;28;20191;-74
2021/12/24 13:34:33;;;;;;;2.00;1.90;;;0.80;1.00;;;;;;5032803;28;20636;-73
2021/12/24 13:37:01;;;;;;;1.63;1.52;;;0.90;1.00;;;;;;5031170;28;20230;-73
2021/12/24 13:39:26;;;;;;;1.77;1.67;;;0.80;1.00;;;;;;5032477;28;20651;-69
2021/12/24 13:42:09;;;;;;;2.50;2.23;;;0.70;1.00;;;;;;5032198;28;20188;-74
2021/12/24 13:44:38;;;;;;;1.30;1.20;;;0.70;1.00;;;;;;5032662;28;20250;-73
2021/12/24 13:47:07;;;;;;;6.25;2.17;;;0.70;1.00;;;;;;5029916;28;20264;-68
2021/12/24 13:50:03;;;;;;;1.88;1.77;;;0.60;1.00;;;;;;5031349;28;20195;-72
2021/12/24 13:55:30;;;;;;;1.75;1.52;;;0.50;1.00;;;;;;5017841;28;20171;-73
2021/12/24 13:57:59;;;;;;;1.60;1.50;;;0.50;1.00;;;;;;5032216;28;20176;-73
2021/12/24 14:00:26;;;;;;;3.95;1.33;;;0.40;1.00;;;;;;5032133;28;20234;-72
2021/12/24 14:02:54;;;;;;;3.50;2.05;;;0.40;1.00;;;;;;5031505;28;20183;-71
2021/12/24 14:05:21;;;;;;;1.73;1.63;;;0.40;1.00;;;;;;5034202;28;20168;-73
2021/12/24 14:08:05;;;;;;;3.72;1.52;;;0.30;1.00;;;;;;5035041;28;20218;-72
2021/12/24 14:10:30;;;;;;;1.50;1.40;;;0.40;1.00;;;;;;5035746;28;20164;-72
2021/12/24 14:13:04;;;;;;;2.00;1.90;;;0.40;1.00;;;;;;5034532;28;20183;-68
2021/12/24 14:15:30;;;;;;;2.30;2.10;;;0.20;1.00;;;;;;5018931;28;20505;-67
2021/12/24 14:21:44;;;;;;;2.00;1.90;;;0.20;1.00;;;;;;5035061;28;20174;-72
2021/12/24 14:23:44;;;;;;;2.67;2.08;;;0.20;1.00;;;;;;5029428;28;20776;-73
2021/12/24 14:26:11;;;;;;;1.80;1.70;;;0.20;1.00;;;;;;5033646;28;20227;-69
2021/12/24 14:28:37;;;;;;;2.45;1.60;;;0.10;1.00;;;;;;5033455;28;20206;-72
2021/12/24 14:31:05;;;;;;;2.10;2.00;;;0.10;1.00;;;;;;5035524;28;20546;-68
2021/12/24 14:33:36;;;;;;;1.50;1.40;;;0.00;1.00;;;;;;5034114;28;20175;-73
2021/12/24 14:36:04;;;;;;;2.90;2.70;;;0.10;99.90;;;;;;5033623;28;20196;-72
2021/12/24 14:38:29;;;;;;;2.22;2.00;;;-0.10;99.90;;;;;;5033912;28;20225;-68
2021/12/24 14:40:58;;;;;;;2.10;1.90;;;-0.10;99.90;;;;;;5035179;28;20214;-67
2021/12/24 14:43:24;;;;;;;2.05;1.88;;;-0.10;99.90;;;;;;5034370;28;20183;-72
2021/12/24 14:45:51;;;;;;;3.38;1.88;;;-0.10;99.90;;;;;;5032753;28;20285;-72
2021/12/24 14:48:26;;;;;;;1.30;1.20;;;-0.20;99.90;;;;;;5035046;28;20211;-67
2021/12/24 14:51:01;;;;;;;1.90;1.80;;;-0.10;99.90;;;;;;5034671;28;20186;-67
2021/12/24 14:53:38;;;;;;;1.55;1.45;;;-0.20;99.90;;;;;;5033753;28;20167;-72
2021/12/24 14:56:09;;;;;;;1.83;1.73;;;-0.30;99.90;;;;;;5034924;28;20195;-70